createdAt,value
2022-10-11T03:41:15.765Z,100986.16
2022-10-11T03:44:18.706Z,100986.16
2022-10-11T03:47:21.118Z,100995.34
2022-10-11T03:50:24.745Z,100993.03
2022-10-11T03:53:27.855Z,100991.53
2022-10-11T03:56:32.689Z,100995.34
2022-10-11T03:59:35.188Z,100993.97
2022-10-11T04:02:39.346Z,100991.78
2022-10-11T04:05:42.270Z,100987.09
2022-10-11T04:08:45.576Z,100987.47
2022-10-11T04:11:48.334Z,100999.25
2022-10-11T04:14:50.912Z,101006.97
2022-10-11T04:17:53.612Z,101004.94
2022-10-11T04:20:56.169Z,100999.56
2022-10-11T04:23:59.269Z,101001.94
2022-10-11T04:27:01.821Z,101000.72
2022-10-11T04:30:05.086Z,101009.19
2022-10-11T04:33:07.652Z,101007.19
2022-10-11T04:36:10.597Z,101011.41
2022-10-11T04:39:13.065Z,101005.97
2022-10-11T04:42:16.460Z,100995.44
2022-10-11T04:45:18.955Z,101007.56
2022-10-11T04:48:21.657Z,101000.41
2022-10-11T04:51:25.022Z,100989.75
2022-10-11T04:54:28.006Z,101000.38
2022-10-11T04:57:30.561Z,100997.56
2022-10-11T05:00:33.335Z,100998.19
2022-10-11T05:03:35.856Z,100991.78
2022-10-11T05:06:38.743Z,101002.75
2022-10-11T05:09:41.449Z,101000.91
2022-10-11T05:12:44.275Z,100993.25
2022-10-11T05:15:46.838Z,101003.31
2022-10-11T05:18:49.818Z,101007.78
2022-10-11T05:21:55.487Z,101007.00
2022-10-11T05:24:58.937Z,101005.88
2022-10-11T05:28:01.453Z,101014.00
2022-10-11T05:31:04.577Z,101011.88
2022-10-11T05:34:07.224Z,101021.75
2022-10-11T05:37:10.048Z,101017.69
2022-10-11T05:40:13.077Z,101022.41
2022-10-11T05:43:16.270Z,101021.28
2022-10-11T05:46:18.821Z,101031.19
2022-10-11T05:49:21.561Z,101030.81
2022-10-11T05:52:24.109Z,101035.16
2022-10-11T05:55:26.884Z,101036.56
2022-10-11T05:58:29.375Z,101044.16
2022-10-11T06:01:32.625Z,101037.56
2022-10-11T06:04:39.374Z,101043.72
2022-10-11T06:07:41.934Z,101046.53
2022-10-11T06:10:44.923Z,101049.38
2022-10-11T06:13:48.806Z,101058.94
2022-10-11T06:16:52.257Z,101061.66
2022-10-11T06:19:55.491Z,101061.66
2022-10-11T06:22:58.898Z,101062.44
2022-10-11T06:26:03.276Z,101064.66
2022-10-11T06:29:07.200Z,101067.03
2022-10-11T06:32:09.697Z,101068.72
2022-10-11T06:35:12.578Z,101063.31
2022-10-11T06:38:15.487Z,101071.09
2022-10-11T06:41:20.020Z,101071.19
2022-10-11T06:44:22.426Z,101068.88
2022-10-11T06:47:25.327Z,101066.75
2022-10-11T06:50:54.304Z,101062.53
2022-10-11T06:53:52.820Z,101062.25
2022-10-11T06:56:55.555Z,101060.69
2022-10-11T06:59:58.287Z,101066.41
2022-10-11T07:03:01.025Z,101073.97
2022-10-11T07:06:08.566Z,101075.97
2022-10-11T07:09:11.435Z,101070.72
2022-10-11T07:12:14.489Z,101075.69
2022-10-11T07:15:17.260Z,101076.94
2022-10-11T07:18:20.157Z,101083.12
2022-10-11T07:21:23.108Z,101093.66
2022-10-11T07:24:26.206Z,101082.38
2022-10-11T07:27:28.928Z,101079.75
2022-10-11T07:30:32.260Z,101083.91
2022-10-11T07:33:34.864Z,101077.59
2022-10-11T07:36:37.627Z,101077.94
2022-10-11T07:39:40.515Z,101084.00
2022-10-11T07:42:43.467Z,101082.22
2022-10-11T07:45:48.373Z,101085.78
2022-10-11T07:48:51.249Z,101088.94
2022-10-11T07:51:53.773Z,101085.66
2022-10-11T07:54:56.475Z,101089.78
2022-10-11T07:57:59.009Z,101094.06
2022-10-11T08:01:01.958Z,101099.94
2022-10-11T08:04:04.943Z,101093.06
2022-10-11T08:07:07.448Z,101103.91
2022-10-11T08:10:10.700Z,101099.00
2022-10-11T08:13:13.127Z,101099.66
2022-10-11T08:16:16.397Z,101098.81
2022-10-11T08:19:23.143Z,101099.41
2022-10-11T08:22:25.990Z,101099.91
2022-10-11T08:25:28.551Z,101108.44
2022-10-11T08:28:31.497Z,101100.38
2022-10-11T08:31:36.035Z,101098.03
2022-10-11T08:34:38.798Z,101099.38
2022-10-11T08:37:41.389Z,101098.66
2022-10-11T08:40:53.883Z,101103.53
2022-10-11T08:44:46.182Z,101095.09
2022-10-11T08:48:02.604Z,101103.97
2022-10-11T08:51:20.821Z,101105.44
2022-10-11T08:54:40.433Z,101096.84
2022-10-11T08:57:46.071Z,101094.13
2022-10-11T09:00:53.795Z,101090.75
2022-10-11T09:04:00.004Z,101090.09
2022-10-11T09:07:16.773Z,101091.16
2022-10-11T09:10:41.673Z,101093.19
2022-10-11T09:14:07.392Z,101086.91
2022-10-11T09:17:37.395Z,101090.19
2022-10-11T09:20:40.263Z,101085.94
2022-10-11T09:23:48.747Z,101099.69
2022-10-11T09:26:59.550Z,101101.41
2022-10-11T09:30:17.562Z,101095.84
2022-10-11T09:33:32.287Z,101102.88
2022-10-11T09:36:44.962Z,101105.66
2022-10-11T09:40:01.007Z,101102.94
2022-10-11T09:43:03.576Z,101105.06
2022-10-11T09:46:45.719Z,101102.63
2022-10-11T09:49:53.238Z,101105.00
2022-10-11T09:53:00.000Z,101105.03
2022-10-11T09:56:05.287Z,101106.50
2022-10-11T09:59:21.559Z,101106.19
2022-10-11T10:02:25.083Z,101113.03
2022-10-11T10:05:31.223Z,101107.72
2022-10-11T10:08:34.884Z,101115.37
2022-10-11T10:11:40.240Z,101111.63
2022-10-11T10:14:42.823Z,101105.84
2022-10-11T10:17:49.688Z,101097.59
2022-10-11T10:20:59.443Z,101096.84
2022-10-11T10:24:07.265Z,101089.31
2022-10-11T10:27:28.985Z,101086.34
2022-10-11T10:30:35.341Z,101088.09
2022-10-11T10:33:38.345Z,101083.41
2022-10-11T10:36:46.552Z,101078.72
2022-10-11T10:40:02.485Z,101084.97
2022-10-11T10:43:08.011Z,101084.13
2022-10-11T10:46:47.741Z,101084.00
2022-10-11T10:50:07.278Z,101080.53
2022-10-11T10:53:31.746Z,101081.06
2022-10-11T10:56:51.141Z,101072.69
2022-10-11T11:00:12.244Z,101069.94
2022-10-11T11:03:26.343Z,101068.66
2022-10-11T11:06:36.624Z,101067.25
2022-10-11T11:09:51.887Z,101067.41
2022-10-11T11:13:23.646Z,101061.31
2022-10-11T11:16:49.411Z,101058.19
2022-10-11T11:20:04.147Z,101067.41
2022-10-11T11:23:42.336Z,101062.72
2022-10-11T11:26:48.653Z,101058.38
2022-10-11T11:30:03.671Z,101057.09
2022-10-11T11:33:14.560Z,101052.81
2022-10-11T11:36:37.217Z,101046.59
2022-10-11T11:39:45.893Z,101048.00
2022-10-11T11:42:53.704Z,101051.22
2022-10-11T11:46:18.705Z,101043.31
2022-10-11T11:49:29.386Z,101043.94
2022-10-11T11:52:40.664Z,101038.38
2022-10-11T11:56:08.880Z,101040.50
2022-10-11T11:59:26.178Z,101041.72
2022-10-11T12:02:31.804Z,101046.28
2022-10-11T12:05:36.234Z,101041.09
2022-10-11T12:08:41.186Z,101037.28
2022-10-11T12:11:57.711Z,101040.22
2022-10-11T12:15:09.647Z,101037.53
2022-10-11T12:18:18.107Z,101030.44
2022-10-11T12:21:31.899Z,101031.50
2022-10-11T12:24:57.075Z,101026.97
2022-10-11T12:28:02.069Z,101030.72
2022-10-11T12:31:17.053Z,101027.94
2022-10-11T12:37:51.883Z,101019.25
2022-10-11T12:41:09.765Z,101025.31
2022-10-11T12:44:18.389Z,101023.34
2022-10-11T12:47:39.140Z,101027.25
2022-10-11T12:50:53.186Z,101023.47
2022-10-11T12:54:26.663Z,101026.00
2022-10-11T12:57:47.454Z,101024.91
2022-10-11T13:00:55.074Z,101019.69
2022-10-11T13:04:03.442Z,101015.31
2022-10-11T13:07:15.661Z,101018.91
2022-10-11T13:10:33.067Z,101009.34
2022-10-11T13:13:47.499Z,101015.41
2022-10-11T13:16:58.752Z,101018.81
2022-10-11T13:20:36.280Z,101012.84
2022-10-11T13:23:41.681Z,101010.81
2022-10-11T13:26:46.708Z,101014.72
2022-10-11T13:29:51.160Z,101019.28
2022-10-11T13:32:54.221Z,101008.34
2022-10-11T13:35:57.177Z,101013.81
2022-10-11T13:39:01.170Z,101013.03
2022-10-11T13:42:11.698Z,101008.44
2022-10-11T13:45:18.513Z,101004.69
2022-10-11T13:48:22.315Z,101002.56
2022-10-11T13:51:34.279Z,101006.50
2022-10-11T13:55:09.947Z,100999.66
2022-10-11T13:58:21.541Z,101004.53
2022-10-11T14:01:36.166Z,101005.22
2022-10-11T14:04:40.992Z,101013.78
2022-10-11T14:07:47.146Z,101006.13
2022-10-11T14:10:56.427Z,101002.41
2022-10-11T14:13:59.946Z,100993.84
2022-10-11T14:17:10.916Z,100996.28
2022-10-11T14:20:21.606Z,100988.34
2022-10-11T14:23:26.459Z,100991.28
2022-10-11T14:26:38.140Z,100994.34
2022-10-11T14:30:00.296Z,100993.94
2022-10-11T14:33:07.480Z,100990.69
2022-10-11T14:36:12.476Z,100992.09
2022-10-11T14:39:20.682Z,100990.69
2022-10-11T14:42:23.695Z,100994.91
2022-10-11T14:45:26.276Z,100983.28
2022-10-11T14:48:53.649Z,100993.59
2022-10-11T14:51:53.840Z,100986.78
2022-10-11T14:54:56.673Z,100989.06
2022-10-11T14:57:59.114Z,100991.19
2022-10-11T15:01:01.929Z,100996.28
2022-10-11T15:04:04.534Z,100983.53
2022-10-11T15:07:07.255Z,100985.50
2022-10-11T15:10:22.438Z,100984.12
2022-10-11T15:13:25.451Z,100984.75
2022-10-11T15:16:27.936Z,100984.12
2022-10-11T15:19:30.783Z,100986.88
2022-10-11T15:22:33.254Z,100986.19
2022-10-11T15:25:36.411Z,100999.34
2022-10-11T15:28:38.875Z,101005.19
2022-10-11T15:31:41.744Z,101004.25
2022-10-11T15:34:44.208Z,101002.53
